Drybrook, United Kingdom
Current Conditions -  °F | °C
As of 10:20 AM on Thursday 29 Jan 2015 (Local Time) from EGBJ Reporting Station
Scattered Clouds Scattered Clouds  
Wind Chill: 34°   Ceiling: Unl
Heat Index: 41°   Visibility: 6mi
Dew Point: 34°   Wind: 12mph
Humidity: 76%   Direction: 220°SW
Pressure: 29.09"   Gusts: NA
Location:  51.86°N, 2.52°W
Report Text: EGBJ 291020Z 22010KT 9999 SCT018 05/01 Q0985
Loading
Personal Weather Stations






























Interactive Weather Map New forecast layout! Learn more

10-Day Weather Forecast

Advertisements
Track Severe Weather on mobile